Time;durP1;ratioP1;P1;durP2;ratioP2;P2;SDS_P1;SDS_P2;PMS_P1;PMS_P2;Temp;Humidity;BMP_temperature;BMP_pressure;BME280_temperature;BME280_humidity;BME280_pressure;Samples;Min_cycle;Max_cycle;Signal;HPM_P1;HPM_P2
2022/04/24 00:01:46;;;;;;;21.60;15.60;;;;;;;2.63;72.22;99020.26;215865;1274;139981;-67
2022/04/24 00:06:52;;;;;;;19.40;12.50;;;;;;;2.48;72.38;99021.17;214593;1274;142620;-67
2022/04/24 00:11:55;;;;;;;25.50;15.10;;;;;;;2.28;72.19;99016.31;213707;1274;141577;-66
2022/04/24 00:16:58;;;;;;;26.50;18.30;;;;;;;2.14;72.22;99010.45;215369;1274;141850;-66
2022/04/24 00:22:00;;;;;;;34.90;20.70;;;;;;;2.06;72.57;99011.40;214805;1274;140419;-67
2022/04/24 00:27:03;;;;;;;34.60;20.00;;;;;;;2.02;72.96;99013.05;213841;1274;139663;-68
2022/04/24 00:32:14;;;;;;;33.60;22.20;;;;;;;1.98;73.00;99002.99;214278;1274;141338;-67
2022/04/24 00:37:16;;;;;;;26.60;19.30;;;;;;;1.96;73.18;98998.55;213519;1273;160113;-69
2022/04/24 00:42:19;;;;;;;31.00;20.00;;;;;;;1.89;73.43;98994.18;214191;1274;140695;-70
2022/04/24 00:47:24;;;;;;;34.30;21.00;;;;;;;1.79;73.34;98992.95;213993;1274;141195;-68
2022/04/24 00:52:26;;;;;;;35.70;27.40;;;;;;;1.76;73.46;98996.85;213258;1274;140774;-68
2022/04/24 00:57:29;;;;;;;30.90;19.40;;;;;;;1.74;73.86;98992.23;213352;1274;140326;-65
2022/04/24 01:02:32;;;;;;;29.10;18.10;;;;;;;1.66;73.59;98994.71;213465;1274;139896;-66
2022/04/24 01:07:36;;;;;;;29.20;20.60;;;;;;;1.60;73.85;98991.20;213851;1272;140013;-65
2022/04/24 01:12:39;;;;;;;24.00;17.80;;;;;;;1.55;73.98;98991.86;214465;1274;142375;-67
2022/04/24 01:17:43;;;;;;;26.90;19.40;;;;;;;1.47;73.75;98987.40;213637;1274;142485;-65
2022/04/24 01:22:46;;;;;;;29.20;18.70;;;;;;;1.38;73.79;98986.52;213956;1274;139829;-69
2022/04/24 01:27:48;;;;;;;43.50;26.20;;;;;;;1.34;74.25;98980.98;215326;1274;140040;-70
2022/04/24 01:32:51;;;;;;;32.20;23.50;;;;;;;1.37;74.31;98977.88;214083;1275;142634;-65
2022/04/24 01:37:56;;;;;;;38.90;23.40;;;;;;;1.37;74.19;98979.25;215904;1275;141776;-68
2022/04/24 01:42:58;;;;;;;42.50;26.50;;;;;;;1.24;73.85;98977.77;214424;1271;142400;-66
2022/04/24 01:48:00;;;;;;;32.70;20.10;;;;;;;1.15;74.06;98972.46;215397;1274;139849;-68
2022/04/24 01:53:02;;;;;;;32.90;21.80;;;;;;;1.16;74.69;98971.83;216056;1275;140040;-69
2022/04/24 01:58:04;;;;;;;26.10;18.70;;;;;;;1.07;73.95;98966.92;216154;1272;140282;-68
2022/04/24 02:03:05;;;;;;;34.70;20.60;;;;;;;1.03;74.58;98965.73;216295;1273;140654;-69
2022/04/24 02:08:08;;;;;;;34.90;23.10;;;;;;;0.99;74.24;98963.79;215744;1274;140525;-68
2022/04/24 02:13:11;;;;;;;31.00;19.90;;;;;;;0.88;73.99;98972.80;214657;1273;140622;-65
2022/04/24 02:18:13;;;;;;;27.80;18.60;;;;;;;0.78;74.44;98971.25;214955;1274;140376;-67
2022/04/24 02:23:16;;;;;;;38.20;22.90;;;;;;;0.74;74.36;98972.50;214308;1274;140663;-67
2022/04/24 02:28:19;;;;;;;39.30;25.20;;;;;;;0.71;74.67;98972.39;215050;1271;142079;-67
2022/04/24 02:33:23;;;;;;;36.20;24.20;;;;;;;0.71;75.18;98975.30;213645;1271;140365;-63
2022/04/24 02:38:26;;;;;;;33.20;22.80;;;;;;;0.73;75.09;98976.33;214624;1274;141580;-63
2022/04/24 02:43:28;;;;;;;33.70;25.50;;;;;;;0.69;75.24;98975.40;214601;1271;140681;-66
2022/04/24 02:48:31;;;;;;;41.10;23.80;;;;;;;0.63;74.98;98971.44;213468;1274;230170;-63
2022/04/24 02:53:34;;;;;;;28.50;20.00;;;;;;;0.54;75.05;98967.54;213424;1274;140052;-64
2022/04/24 02:58:40;;;;;;;37.50;24.20;;;;;;;0.45;75.10;98967.91;213579;1274;139992;-64
2022/04/24 03:03:45;;;;;;;41.40;25.40;;;;;;;0.45;75.81;98963.70;214413;1274;139773;-64
2022/04/24 03:08:48;;;;;;;39.70;23.10;;;;;;;0.47;75.90;98960.73;214597;1274;140347;-65
2022/04/24 03:13:52;;;;;;;37.20;23.20;;;;;;;0.47;75.79;98957.14;214421;1274;142426;-67
2022/04/24 03:18:54;;;;;;;38.30;22.10;;;;;;;0.43;75.71;98950.66;214539;1274;140357;-65
2022/04/24 03:23:56;;;;;;;41.40;23.50;;;;;;;0.34;75.43;98945.94;214349;1274;140770;-66
2022/04/24 03:29:00;;;;;;;46.50;27.90;;;;;;;0.24;75.39;98942.15;215049;1272;140596;-66
2022/04/24 03:34:02;;;;;;;34.90;24.20;;;;;;;0.27;75.81;98945.98;215920;1274;140116;-67
2022/04/24 03:39:06;;;;;;;34.50;20.70;;;;;;;0.27;75.56;98945.04;214128;1276;140258;-68
2022/04/24 03:44:09;;;;;;;40.90;25.70;;;;;;;0.25;75.62;98939.52;215909;1276;140759;-71
2022/04/24 03:49:11;;;;;;;43.10;25.30;;;;;;;0.58;75.73;98935.85;215440;1274;141607;-70
2022/04/24 03:54:14;;;;;;;43.20;24.80;;;;;;;1.19;75.44;98936.77;216232;1274;141156;-70
2022/04/24 03:59:17;;;;;;;62.60;38.50;;;;;;;2.24;74.81;98932.17;216184;1274;142447;-72
2022/04/24 04:04:18;;;;;;;53.10;33.70;;;;;;;3.16;73.91;98927.88;216133;1273;141062;-71
2022/04/24 04:09:21;;;;;;;38.80;25.90;;;;;;;3.49;73.15;98922.34;215473;1276;139880;-67
2022/04/24 04:14:23;;;;;;;37.30;26.40;;;;;;;3.29;72.39;98916.45;215058;1275;140729;-67
2022/04/24 04:19:25;;;;;;;30.00;20.90;;;;;;;2.95;72.21;98922.73;213940;1274;141382;-68
2022/04/24 04:24:28;;;;;;;35.80;26.30;;;;;;;2.63;72.23;98922.85;214395;1274;140928;-64
2022/04/24 04:29:31;;;;;;;41.80;27.80;;;;;;;2.44;72.48;98921.98;214659;1274;141431;-68
2022/04/24 04:34:37;;;;;;;34.80;25.70;;;;;;;2.42;72.78;98918.30;213179;1276;140715;-67
2022/04/24 04:39:39;;;;;;;42.10;28.90;;;;;;;2.37;73.19;98920.89;214544;1274;139857;-67
2022/04/24 04:44:43;;;;;;;50.60;36.00;;;;;;;2.36;73.42;98919.83;214761;1274;140596;-70
2022/04/24 04:49:48;;;;;;;72.50;49.60;;;;;;;2.45;73.98;98917.40;213179;1275;141953;-69
2022/04/24 04:54:50;;;;;;;58.40;38.10;;;;;;;2.64;74.54;98914.36;213201;1274;142802;-69
2022/04/24 04:59:53;;;;;;;54.20;35.40;;;;;;;2.78;74.83;98908.79;214010;1274;141487;-68
2022/04/24 05:04:59;;;;;;;59.20;35.40;;;;;;;3.00;75.50;98914.06;213651;1276;142174;-67
2022/04/24 05:10:04;;;;;;;53.80;34.20;;;;;;;3.32;76.28;98916.73;213655;1274;141737;-68
2022/04/24 05:15:10;;;;;;;97.30;50.00;;;;;;;3.66;76.34;98912.54;213324;1274;140413;-67
2022/04/24 05:20:14;;;;;;;67.60;37.70;;;;;;;4.03;76.45;98906.98;213388;1274;141494;-64
2022/04/24 05:25:16;;;;;;;51.00;31.80;;;;;;;4.38;76.50;98907.30;214373;1276;141413;-63
2022/04/24 05:30:19;;;;;;;34.40;23.60;;;;;;;6.08;74.79;98906.19;213951;1276;140401;-64
2022/04/24 05:35:22;;;;;;;33.80;20.90;;;;;;;8.16;73.55;98904.79;213285;1274;153257;-67
2022/04/24 05:40:24;;;;;;;35.20;17.30;;;;;;;8.47;73.37;98902.58;213102;1274;141422;-67
2022/04/24 05:45:26;;;;;;;30.90;15.10;;;;;;;8.44;72.76;98910.23;214028;1276;141303;-66
2022/04/24 05:50:29;;;;;;;14.40;11.20;;;;;;;8.48;72.83;98911.67;213815;1274;141423;-67
2022/04/24 05:55:31;;;;;;;10.30;9.30;;;;;;;8.56;72.19;98914.87;213199;1274;140735;-67
2022/04/24 06:00:33;;;;;;;15.30;9.50;;;;;;;8.53;72.36;98922.77;214742;1274;140852;-66
2022/04/24 06:05:35;;;;;;;10.80;8.50;;;;;;;8.62;72.05;98925.06;214887;1274;140016;-69
2022/04/24 06:10:38;;;;;;;9.00;7.90;;;;;;;8.71;72.20;98928.72;214944;1274;141983;-66
2022/04/24 06:15:41;;;;;;;10.10;6.70;;;;;;;8.74;71.73;98933.45;214260;1274;140497;-66
2022/04/24 06:20:44;;;;;;;15.10;8.20;;;;;;;8.73;71.58;98934.54;214747;1274;141253;-67
2022/04/24 06:25:46;;;;;;;12.80;8.80;;;;;;;8.80;71.73;98936.40;213168;1276;142450;-67
2022/04/24 06:30:48;;;;;;;11.60;8.70;;;;;;;8.89;71.55;98940.20;215111;1274;140603;-67
2022/04/24 06:35:49;;;;;;;10.60;7.80;;;;;;;9.04;71.62;98938.94;214079;1274;139802;-66
2022/04/24 06:40:55;;;;;;;18.80;10.50;;;;;;;9.37;71.35;98933.08;213520;1274;141236;-67
2022/04/24 06:45:57;;;;;;;11.60;8.80;;;;;;;9.71;71.11;98927.10;213959;1274;141313;-65
2022/04/24 06:50:59;;;;;;;11.40;9.20;;;;;;;10.32;70.65;98921.41;213258;1274;140860;-69
2022/04/24 06:56:01;;;;;;;9.30;7.30;;;;;;;11.15;69.92;98919.10;213438;1274;141753;-67
2022/04/24 07:01:03;;;;;;;11.50;9.70;;;;;;;12.21;69.09;98916.45;213951;1274;150984;-70
2022/04/24 07:06:09;;;;;;;8.40;7.60;;;;;;;13.74;67.85;98905.48;214633;1274;140802;-70
2022/04/24 07:11:17;;;;;;;8.30;7.60;;;;;;;14.94;65.73;98908.27;214181;1274;139629;-68
2022/04/24 07:16:20;;;;;;;8.50;6.70;;;;;;;15.17;63.98;98907.60;214283;1277;139576;-67
2022/04/24 07:21:23;;;;;;;9.10;5.80;;;;;;;15.09;63.07;98901.34;213769;1274;140496;-69
2022/04/24 07:26:30;;;;;;;;;;;;;;;15.38;62.77;98896.20;213437;1274;140485;-70
2022/04/24 07:31:31;;;;;;;9.40;7.10;;;;;;;15.72;62.05;98893.01;214645;1274;148936;-68
2022/04/24 07:36:33;;;;;;;6.30;5.80;;;;;;;15.88;61.12;98890.23;213398;1274;151902;-69
2022/04/24 07:41:36;;;;;;;7.90;5.40;;;;;;;15.93;60.37;98887.23;215118;1274;141624;-69
2022/04/24 07:46:39;;;;;;;4.80;4.40;;;;;;;15.85;59.28;98884.73;215156;1274;531307;-73
2022/04/24 07:51:44;;;;;;;5.10;4.70;;;;;;;15.78;58.45;98878.05;213969;1274;139621;-69
2022/04/24 07:56:48;;;;;;;6.00;5.10;;;;;;;15.63;57.47;98872.60;216243;1274;140083;-71
2022/04/24 08:01:51;;;;;;;5.90;3.80;;;;;;;15.53;57.11;98871.75;215941;1274;140026;-70
2022/04/24 08:06:54;;;;;;;4.10;3.40;;;;;;;15.55;56.55;98872.48;215579;1275;139577;-69
2022/04/24 08:11:56;;;;;;;4.70;4.20;;;;;;;15.44;56.10;98868.89;215267;1277;139333;-68
2022/04/24 08:16:58;;;;;;;4.50;3.80;;;;;;;15.35;55.87;98864.32;215949;1274;139296;-73
2022/04/24 08:22:01;;;;;;;5.70;4.90;;;;;;;15.37;56.04;98860.32;215590;1274;141597;-67
2022/04/24 08:27:04;;;;;;;6.80;5.70;;;;;;;15.52;56.41;98857.31;214134;1274;230578;-72
2022/04/24 08:32:06;;;;;;;6.10;5.00;;;;;;;15.56;55.54;98862.21;213717;1274;140962;-67
2022/04/24 08:37:08;;;;;;;8.30;5.50;;;;;;;15.42;55.13;98863.60;214481;1274;140809;-67
2022/04/24 08:42:11;;;;;;;4.70;4.20;;;;;;;15.37;55.24;98862.27;215241;1274;139435;-69
2022/04/24 08:47:19;;;;;;;5.00;4.50;;;;;;;15.40;55.07;98853.95;214902;1274;141020;-67
2022/04/24 08:52:23;;;;;;;6.50;4.20;;;;;;;15.49;55.35;98847.30;214592;1276;141229;-71
2022/04/24 08:57:26;;;;;;;4.90;4.40;;;;;;;15.60;54.84;98846.71;213562;1274;141234;-68
2022/04/24 09:02:29;;;;;;;5.00;4.60;;;;;;;15.55;54.46;98844.28;213343;1274;142371;-72
2022/04/24 09:07:33;;;;;;;14.20;3.70;;;;;;;15.60;54.47;98848.94;214651;1274;140288;-70
2022/04/24 09:12:39;;;;;;;3.60;3.30;;;;;;;15.66;54.39;98855.80;212989;1274;141252;-69
2022/04/24 09:17:41;;;;;;;4.40;4.00;;;;;;;15.68;54.25;98856.84;213495;1274;150407;-71
2022/04/24 09:22:45;;;;;;;3.60;3.30;;;;;;;15.82;54.53;98860.59;213509;1274;140647;-71
2022/04/24 09:27:56;;;;;;;4.20;3.80;;;;;;;15.92;54.06;98864.41;213331;1274;141721;-70
2022/04/24 09:33:01;;;;;;;3.30;3.00;;;;;;;16.06;53.74;98857.39;214149;1274;141039;-72
2022/04/24 09:38:17;;;;;;;5.40;3.90;;;;;;;16.20;53.34;98853.91;213852;1274;140849;-73
2022/04/24 09:43:21;;;;;;;3.80;3.50;;;;;;;16.33;53.61;98861.05;213161;1274;140183;-67
2022/04/24 09:48:25;;;;;;;5.10;4.00;;;;;;;16.60;53.50;98857.39;214492;1274;139855;-68
2022/04/24 09:53:34;;;;;;;4.30;3.90;;;;;;;16.75;53.13;98857.05;213471;1274;140516;-71
2022/04/24 09:58:38;;;;;;;4.10;3.70;;;;;;;17.01;52.88;98865.15;213511;1274;141169;-70
2022/04/24 10:03:45;;;;;;;3.20;2.80;;;;;;;17.23;52.02;98860.40;215956;1274;140407;-72
2022/04/24 10:08:51;;;;;;;5.80;4.20;;;;;;;17.48;51.54;98864.70;214714;1274;140711;-72
2022/04/24 10:14:04;;;;;;;3.50;3.20;;;;;;;17.56;50.56;98863.29;216051;1274;140378;-72
2022/04/24 10:19:36;;;;;;;3.50;3.20;;;;;;;17.31;50.40;98857.39;216033;1274;140904;-71
2022/04/24 10:24:42;;;;;;;3.60;3.20;;;;;;;17.53;50.62;98852.31;216007;1276;140508;-73
2022/04/24 10:29:52;;;;;;;6.70;6.10;;;;;;;17.80;50.37;98839.71;216359;1274;143647;-73
2022/04/24 10:34:54;;;;;;;3.60;3.30;;;;;;;17.96;50.05;98829.93;214256;1276;140533;-67
2022/04/24 10:39:58;;;;;;;3.80;3.50;;;;;;;17.94;49.79;98823.19;213365;1274;153282;-72
2022/04/24 10:45:20;;;;;;;3.80;3.50;;;;;;;17.85;49.33;98819.27;214638;1275;140440;-71
2022/04/24 10:50:22;;;;;;;3.00;2.80;;;;;;;17.36;48.31;98808.41;214772;1274;139384;-72
2022/04/24 10:55:26;;;;;;;5.70;4.50;;;;;;;17.10;48.91;98797.92;215678;1274;140067;-72
2022/04/24 11:00:34;;;;;;;5.40;4.10;;;;;;;17.21;48.92;98782.88;214551;1274;140949;-71
2022/04/24 11:05:40;;;;;;;3.30;3.00;;;;;;;17.21;48.70;98779.70;213328;1277;142004;-73
2022/04/24 11:10:45;;;;;;;3.50;3.20;;;;;;;17.03;48.44;98771.59;213734;1274;141351;-73
2022/04/24 11:15:50;;;;;;;5.00;2.80;;;;;;;17.06;48.28;98762.67;213372;1274;140259;-74
2022/04/24 11:21:01;;;;;;;2.50;2.40;;;;;;;17.23;48.12;98754.03;213536;1277;140307;-71
2022/04/24 11:26:09;;;;;;;2.90;2.70;;;;;;;17.43;47.95;98748.35;213394;1276;152338;-72
2022/04/24 11:31:22;;;;;;;2.70;2.60;;;;;;;17.55;47.65;98745.06;214164;1274;139089;-73
2022/04/24 11:36:32;;;;;;;4.40;2.70;;;;;;;17.54;47.12;98730.85;214016;1274;221655;-72
2022/04/24 11:41:35;;;;;;;3.90;3.40;;;;;;;17.55;46.92;98726.20;214554;1274;139679;-72
2022/04/24 11:51:59;;;;;;;4.60;4.20;;;;;;;17.48;47.00;98713.25;213468;1275;140926;-73
2022/04/24 11:57:01;;;;;;;4.30;4.00;;;;;;;17.59;47.26;98706.35;214525;1274;142378;-76
2022/04/24 12:02:09;;;;;;;3.10;2.90;;;;;;;17.42;47.01;98708.39;214947;1274;139803;-70
2022/04/24 12:07:28;;;;;;;4.00;3.70;;;;;;;17.57;47.03;98697.91;215104;1276;140204;-74
2022/04/24 12:12:31;;;;;;;4.50;3.30;;;;;;;17.51;46.76;98696.14;214261;1276;140997;-75
2022/04/24 12:17:35;;;;;;;3.90;3.60;;;;;;;16.93;47.04;98692.72;216325;1271;141805;-69
2022/04/24 12:22:37;;;;;;;3.80;3.50;;;;;;;16.82;47.78;98698.44;216237;1274;140094;-75
2022/04/24 12:27:54;;;;;;;4.00;3.70;;;;;;;17.02;48.04;98697.60;215027;1274;141180;-72
2022/04/24 12:33:04;;;;;;;3.60;3.30;;;;;;;17.34;47.55;98690.64;215516;1274;140664;-72
2022/04/24 12:38:13;;;;;;;5.20;4.40;;;;;;;17.53;47.24;98686.69;213335;1275;141753;-72
2022/04/24 12:43:23;;;;;;;4.50;4.00;;;;;;;17.22;47.28;98682.89;214280;1275;140786;-72
2022/04/24 12:48:27;;;;;;;5.10;3.90;;;;;;;16.90;47.62;98673.63;213184;1274;141162;-71
2022/04/24 12:53:30;;;;;;;4.80;3.60;;;;;;;16.69;47.86;98673.78;213949;1274;140744;-74
2022/04/24 12:58:32;;;;;;;3.90;3.50;;;;;;;16.51;48.24;98666.27;214647;1274;141615;-73
2022/04/24 13:03:36;;;;;;;4.50;4.10;;;;;;;16.30;48.46;98669.13;213443;1274;140174;-73
2022/04/24 13:08:43;;;;;;;4.30;4.00;;;;;;;16.34;48.99;98670.63;214458;1274;141829;-72
2022/04/24 13:13:48;;;;;;;4.40;4.00;;;;;;;16.59;49.10;98668.91;214094;1274;140870;-73
2022/04/24 13:18:50;;;;;;;4.10;3.70;;;;;;;16.73;48.74;98668.61;213480;1274;140984;-72
2022/04/24 13:23:53;;;;;;;4.10;3.80;;;;;;;16.55;48.54;98665.17;213913;1276;140337;-73
2022/04/24 13:28:56;;;;;;;4.20;3.80;;;;;;;16.37;48.95;98662.70;213346;1274;139796;-73
2022/04/24 13:33:59;;;;;;;5.00;3.10;;;;;;;16.26;48.94;98653.35;213300;1274;141110;-72
2022/04/24 13:39:02;;;;;;;2.80;2.60;;;;;;;16.19;48.99;98657.10;214039;1274;140557;-72
2022/04/24 13:44:05;;;;;;;3.50;3.20;;;;;;;16.02;49.04;98650.36;213444;1275;140647;-71
2022/04/24 13:49:07;;;;;;;3.50;3.20;;;;;;;15.83;49.02;98649.19;213926;1274;140794;-72
2022/04/24 13:54:12;;;;;;;3.60;3.30;;;;;;;15.69;49.58;98646.95;213817;1274;140842;-73
2022/04/24 13:59:16;;;;;;;3.90;3.50;;;;;;;15.64;49.63;98643.98;213541;1274;140417;-73
2022/04/24 14:04:20;;;;;;;6.30;3.50;;;;;;;15.54;50.20;98640.59;214606;1274;140467;-70
2022/04/24 14:09:25;;;;;;;3.90;3.50;;;;;;;15.40;50.19;98639.98;213741;1276;139636;-69
2022/04/24 14:14:31;;;;;;;3.80;3.50;;;;;;;15.38;50.57;98643.52;214998;1274;140786;-71
2022/04/24 14:19:36;;;;;;;3.20;3.00;;;;;;;15.39;50.46;98641.55;214972;1272;140144;-71
2022/04/24 14:24:42;;;;;;;4.80;2.90;;;;;;;15.37;50.60;98642.55;214096;1274;141967;-71
2022/04/24 14:29:45;;;;;;;3.00;2.80;;;;;;;15.38;50.78;98641.46;216233;1274;140350;-72
2022/04/24 14:34:48;;;;;;;3.70;3.30;;;;;;;15.39;50.79;98638.38;216204;1271;141952;-72
2022/04/24 14:39:52;;;;;;;3.50;3.20;;;;;;;15.43;50.91;98633.23;215780;1274;140149;-71
2022/04/24 14:44:55;;;;;;;4.00;3.20;;;;;;;15.37;50.61;98630.42;216065;1274;142032;-72
2022/04/24 14:55:44;;;;;;;3.00;2.70;;;;;;;15.26;50.71;98626.15;213801;1274;141291;-71
2022/04/24 14:55:46;;;;;;;3.80;3.40;;;;;;;15.11;50.81;98618.89;214483;1276;140769;-71
2022/04/24 15:00:51;;;;;;;3.60;2.70;;;;;;;15.10;51.17;98617.56;214071;1274;139486;-72
2022/04/24 15:05:55;;;;;;;4.20;3.40;;;;;;;15.03;51.11;98612.63;213525;1274;142325;-68
2022/04/24 15:11:00;;;;;;;3.70;3.40;;;;;;;14.85;50.97;98603.29;214633;1274;141473;-72
2022/04/24 15:16:07;;;;;;;3.70;3.10;;;;;;;14.67;51.49;98599.09;213451;1274;140106;-72
2022/04/24 15:21:11;;;;;;;3.00;2.80;;;;;;;14.49;51.80;98593.30;213749;1274;140233;-71
2022/04/24 15:26:16;;;;;;;3.60;3.40;;;;;;;14.30;52.16;98595.23;213883;1274;142317;-72
2022/04/24 15:31:21;;;;;;;3.50;3.20;;;;;;;14.15;52.58;98591.86;213299;1274;139360;-69
2022/04/24 15:36:25;;;;;;;4.80;3.90;;;;;;;14.03;53.04;98585.20;214118;1274;139500;-72
2022/04/24 15:41:32;;;;;;;3.80;3.50;;;;;;;13.89;53.17;98578.17;213791;1274;139258;-72
2022/04/24 15:46:36;;;;;;;4.50;3.60;;;;;;;13.77;53.32;98578.55;213044;1276;139099;-74
2022/04/24 15:51:39;;;;;;;4.90;4.30;;;;;;;13.63;53.59;98570.40;214855;1273;140016;-73
2022/04/24 15:56:42;;;;;;;6.10;4.80;;;;;;;13.53;54.13;98574.73;214232;1273;139647;-67
2022/04/24 16:01:45;;;;;;;5.00;4.30;;;;;;;13.42;54.63;98564.66;214669;1275;140232;-73
2022/04/24 16:06:48;;;;;;;5.80;5.10;;;;;;;13.33;54.90;98562.05;214493;1275;141351;-68
2022/04/24 16:11:51;;;;;;;4.50;4.10;;;;;;;13.23;55.19;98557.05;214481;1274;139992;-71
2022/04/24 16:16:53;;;;;;;4.20;3.40;;;;;;;13.09;55.53;98549.49;214153;1273;140388;-71
2022/04/24 16:21:55;;;;;;;5.90;4.80;;;;;;;12.96;56.17;98551.73;216255;1274;141171;-68
2022/04/24 16:26:58;;;;;;;3.40;3.20;;;;;;;12.84;56.99;98542.61;215823;1274;140953;-71
2022/04/24 16:32:00;;;;;;;5.20;3.60;;;;;;;12.73;57.25;98535.41;215779;1274;139427;-71
2022/04/24 16:37:04;;;;;;;3.80;3.40;;;;;;;12.61;57.71;98527.57;215688;1273;140280;-67
2022/04/24 16:42:06;;;;;;;5.50;4.60;;;;;;;12.48;57.81;98525.79;215683;1273;140960;-70
2022/04/24 16:47:12;;;;;;;7.60;5.30;;;;;;;12.38;58.08;98528.83;213751;1274;140203;-71
2022/04/24 17:03:06;;;;;;;6.30;5.70;;;;;;;12.17;59.03;98533.02;213790;1272;141937;-71
2022/04/24 17:08:09;;;;;;;7.90;6.00;;;;;;;12.09;59.45;98536.50;214534;1274;140837;-66
2022/04/24 17:13:11;;;;;;;8.70;7.70;;;;;;;12.02;59.45;98542.19;214386;1274;141710;-70
2022/04/24 17:18:15;;;;;;;9.80;6.60;;;;;;;11.96;59.91;98539.05;213518;1274;141140;-71
2022/04/24 17:23:18;;;;;;;6.50;5.90;;;;;;;11.88;60.29;98543.05;213450;1273;142800;-70
2022/04/24 17:28:21;;;;;;;5.70;5.20;;;;;;;11.79;60.62;98544.72;213594;1274;143658;-66
2022/04/24 17:33:24;;;;;;;8.50;6.80;;;;;;;11.69;61.11;98548.13;213453;1273;141042;-70
2022/04/24 17:38:31;;;;;;;9.00;6.30;;;;;;;11.58;61.77;98553.60;213744;1274;142085;-72
2022/04/24 17:43:33;;;;;;;9.00;7.50;;;;;;;11.47;62.11;98552.29;214746;1274;140458;-70
2022/04/24 17:48:37;;;;;;;6.60;6.00;;;;;;;11.40;62.38;98562.27;214008;1273;141111;-70
2022/04/24 17:53:43;;;;;;;8.00;5.70;;;;;;;11.35;63.00;98565.85;213665;1274;142133;-70
2022/04/24 17:58:58;;;;;;;8.50;5.50;;;;;;;11.26;63.29;98571.79;215090;1274;141254;-71
2022/04/24 18:04:01;;;;;;;5.80;5.20;;;;;;;11.14;63.82;98571.30;213714;1272;141575;-70
2022/04/24 18:09:07;;;;;;;5.20;4.70;;;;;;;11.01;64.45;98574.02;213773;1274;143998;-70
2022/04/24 18:14:14;;;;;;;8.90;6.30;;;;;;;10.85;65.05;98583.55;214498;1274;141826;-69
2022/04/24 18:19:24;;;;;;;6.00;5.40;;;;;;;10.75;65.70;98597.27;213463;1274;140241;-70
2022/04/24 18:24:27;;;;;;;6.20;5.60;;;;;;;10.66;66.08;98600.84;213642;1274;142214;-69
2022/04/24 18:29:32;;;;;;;9.20;7.00;;;;;;;10.56;66.67;98601.11;216055;1274;140178;-71
2022/04/24 18:34:41;;;;;;;9.50;6.40;;;;;;;10.47;67.20;98604.60;215755;1274;139946;-70
2022/04/24 18:39:49;;;;;;;21.80;5.70;;;;;;;10.42;67.49;98610.06;214726;1274;141488;-69
2022/04/24 18:44:53;;;;;;;12.50;7.20;;;;;;;10.37;67.65;98620.92;215056;1274;140513;-69
2022/04/24 18:49:57;;;;;;;9.10;6.60;;;;;;;10.36;68.16;98629.40;214775;1274;140624;-71
2022/04/24 18:55:02;;;;;;;7.80;5.50;;;;;;;10.31;68.32;98629.11;214959;1274;141089;-70
2022/04/24 19:00:06;;;;;;;9.60;6.20;;;;;;;10.21;68.65;98633.46;214974;1274;140754;-70
2022/04/24 19:16:21;;;;;;;8.50;7.00;;;;;;;9.93;69.95;98638.03;212820;1276;142758;-68
2022/04/24 19:21:27;;;;;;;9.00;5.60;;;;;;;9.85;70.44;98637.33;213828;1274;140770;-69
2022/04/24 19:26:31;;;;;;;7.60;6.90;;;;;;;9.77;70.82;98636.44;213514;1274;141367;-69
2022/04/24 19:31:38;;;;;;;12.30;7.60;;;;;;;9.70;71.13;98635.44;213977;1273;140714;-70
2022/04/24 19:36:40;;;;;;;10.10;7.60;;;;;;;9.64;71.54;98640.19;213096;1274;141535;-71
2022/04/24 19:41:42;;;;;;;13.10;8.00;;;;;;;9.60;71.92;98639.88;213465;1274;141318;-69
2022/04/24 19:46:47;;;;;;;16.10;10.70;;;;;;;9.55;72.12;98636.11;213242;1274;812086;-69
2022/04/24 19:51:51;;;;;;;13.20;8.20;;;;;;;9.54;72.35;98633.44;213807;1274;141601;-71
2022/04/24 19:56:54;;;;;;;8.10;7.10;;;;;;;9.53;72.64;98617.79;215112;1274;141144;-71
2022/04/24 20:02:00;;;;;;;8.00;6.30;;;;;;;9.50;72.93;98614.84;214301;1274;140766;-67
2022/04/24 20:07:03;;;;;;;11.10;7.70;;;;;;;9.45;72.93;98617.17;214555;1274;140381;-68
2022/04/24 20:12:05;;;;;;;9.00;8.00;;;;;;;9.43;73.15;98602.84;214874;1274;141292;-73
2022/04/24 20:17:07;;;;;;;9.80;8.80;;;;;;;9.40;73.49;98594.90;213247;1274;139957;-69
2022/04/24 20:22:10;;;;;;;9.40;7.90;;;;;;;9.37;73.58;98605.51;214129;1276;140305;-69
2022/04/24 20:27:12;;;;;;;10.30;7.80;;;;;;;9.34;73.65;98590.10;216078;1274;155090;-71
2022/04/24 20:32:15;;;;;;;8.30;6.90;;;;;;;9.29;73.68;98574.80;213757;1274;140408;-65
2022/04/24 20:37:17;;;;;;;7.40;6.70;;;;;;;9.21;74.13;98569.04;214254;1274;141497;-70
2022/04/24 20:42:20;;;;;;;10.20;7.30;;;;;;;9.14;74.40;98566.51;213788;1274;141239;-66
2022/04/24 20:47:22;;;;;;;8.80;7.20;;;;;;;9.09;74.72;98561.62;215802;1274;140682;-75
2022/04/24 20:52:25;;;;;;;10.80;8.20;;;;;;;9.08;74.84;98566.45;216064;1272;140472;-73
2022/04/24 20:57:27;;;;;;;8.00;6.60;;;;;;;9.09;74.64;98568.21;213675;1274;142838;-69
2022/04/24 21:02:30;;;;;;;11.40;8.40;;;;;;;9.07;74.77;98570.27;215495;1274;140650;-70
2022/04/24 21:07:33;;;;;;;9.70;7.40;;;;;;;9.08;75.07;98572.94;213806;1274;140050;-69
2022/04/24 21:12:36;;;;;;;8.60;7.50;;;;;;;9.09;75.23;98577.30;214041;1274;139842;-70
2022/04/24 21:17:40;;;;;;;17.30;8.20;;;;;;;9.08;75.49;98577.45;214575;1274;139987;-72
2022/04/24 21:22:42;;;;;;;8.60;7.10;;;;;;;9.06;75.42;98575.16;213864;1274;140068;-69
2022/04/24 21:27:44;;;;;;;9.40;6.40;;;;;;;9.06;75.30;98575.27;213316;1274;140135;-66
2022/04/24 21:32:51;;;;;;;9.30;7.20;;;;;;;9.05;75.53;98571.73;213427;1274;139483;-70
2022/04/24 21:37:53;;;;;;;10.70;7.70;;;;;;;9.03;75.48;98571.88;213324;1274;139795;-69
2022/04/24 21:42:55;;;;;;;9.00;8.20;;;;;;;9.01;75.88;98571.06;213990;1274;141927;-68
2022/04/24 21:47:58;;;;;;;8.50;7.10;;;;;;;8.99;75.88;98571.30;214594;1274;139774;-69
2022/04/24 21:53:00;;;;;;;10.40;8.30;;;;;;;8.96;76.00;98573.83;213972;1274;141564;-68
2022/04/24 21:58:04;;;;;;;7.90;6.90;;;;;;;8.91;75.97;98574.73;214913;1274;140209;-67
2022/04/24 22:08:27;;;;;;;11.80;8.30;;;;;;;8.87;76.12;98579.65;213385;1274;140944;-65
2022/04/24 22:13:30;;;;;;;9.00;8.00;;;;;;;8.84;76.39;98580.86;214454;1274;139939;-70
2022/04/24 22:18:33;;;;;;;9.10;8.20;;;;;;;8.83;76.45;98588.39;214122;1274;141001;-68
2022/04/24 22:29:00;;;;;;;9.10;7.50;;;;;;;8.77;76.52;98580.24;214087;1274;140724;-68
2022/04/24 22:34:03;;;;;;;7.70;6.60;;;;;;;8.75;76.52;98582.14;213761;1274;140159;-69
2022/04/24 22:39:05;;;;;;;7.50;6.50;;;;;;;8.74;76.46;98582.19;213768;1274;141343;-68
2022/04/24 22:44:08;;;;;;;8.40;7.40;;;;;;;8.70;76.44;98580.45;214307;1274;140088;-68
2022/04/24 22:49:10;;;;;;;7.60;6.50;;;;;;;8.69;76.46;98574.75;213907;1274;140404;-68
2022/04/24 22:54:13;;;;;;;10.30;7.40;;;;;;;8.69;76.33;98575.59;213004;1274;141289;-68
2022/04/24 22:59:15;;;;;;;7.20;6.40;;;;;;;8.68;76.48;98574.15;215263;1274;140289;-69
2022/04/24 23:04:17;;;;;;;9.10;7.30;;;;;;;8.64;76.27;98576.39;213314;1274;140067;-69
2022/04/24 23:09:19;;;;;;;8.80;7.90;;;;;;;8.61;76.66;98571.41;214685;1274;140207;-70
2022/04/24 23:14:22;;;;;;;9.00;6.10;;;;;;;8.59;76.47;98566.55;214148;1272;139967;-72
2022/04/24 23:19:24;;;;;;;7.40;5.80;;;;;;;8.55;76.33;98562.86;215099;1274;140360;-71
2022/04/24 23:24:32;;;;;;;8.90;7.40;;;;;;;8.52;76.40;98566.55;216206;1274;141155;-70
2022/04/24 23:29:42;;;;;;;9.30;6.40;;;;;;;8.51;76.40;98565.80;215950;1276;140346;-68
2022/04/24 23:34:48;;;;;;;7.70;5.80;;;;;;;8.51;76.14;98563.63;215141;1275;140563;-68
2022/04/24 23:39:50;;;;;;;8.40;7.50;;;;;;;8.52;76.33;98568.30;215125;1274;142663;-69
2022/04/24 23:44:52;;;;;;;7.20;6.30;;;;;;;8.49;76.26;98565.84;213714;1274;139642;-69
2022/04/24 23:49:54;;;;;;;7.70;7.00;;;;;;;8.47;76.56;98570.16;213945;1274;141352;-68
2022/04/24 23:54:57;;;;;;;8.40;7.00;;;;;;;8.41;76.34;98575.09;213116;1274;139612;-67